International Virtual Aviation Organisation

Eastern Europe and Northern Asia MCD

 
UHSS 110300Z 20007MPS 9999 NSC 11/01 Q1026 R19/70D NOSIG RMK QFE768/1024
QNH:(hPa/inHg/mmHg)1026 / 30.3 / 770
QFE:(hPa/inHg/mmHg)1024 / 30.23 / 768
Temperature11
Dew Point1
Visibility> 10000
Weather
Cloud Cover
Transition Height1600 m./5400 ft.
Transition LevelFL60
SQUAWK